Time;durP1;ratioP1;P1;durP2;ratioP2;P2;SDS_P1;SDS_P2;PMS_P1;PMS_P2;Temp;Humidity;BMP_temperature;BMP_pressure;BME280_temperature;BME280_humidity;BME280_pressure;Samples;Min_cycle;Max_cycle;Signal;HPM_P1;HPM_P2
2023/01/07 00:02:04;;;;;;;41.73;5.57;;;14.00;72.00;14.10;96958.00;;;;5036887;28;20289;-88
2023/01/07 00:04:32;;;;;;;28.50;5.20;;;13.90;72.00;14.10;96957.00;;;;5036928;28;20714;-88
2023/01/07 00:06:59;;;;;;;47.87;5.80;;;13.90;72.10;14.10;96950.00;;;;5037029;28;20280;-88
2023/01/07 00:09:26;;;;;;;7.80;3.53;;;13.90;72.20;14.10;96951.00;;;;5035008;28;20233;-88
2023/01/07 00:11:53;;;;;;;33.30;5.33;;;13.90;72.20;14.10;96951.00;;;;5038418;28;20299;-88
2023/01/07 00:14:20;;;;;;;15.27;3.97;;;13.90;72.10;14.10;96949.00;;;;5036916;28;20901;-88
2023/01/07 00:16:47;;;;;;;4.67;3.67;;;13.90;72.20;14.10;96953.00;;;;5036558;28;20209;-88
2023/01/07 00:19:16;;;;;;;34.93;5.40;;;13.90;72.20;14.10;96948.00;;;;5037288;28;20308;-88
2023/01/07 00:21:44;;;;;;;35.77;6.13;;;13.90;72.20;14.10;96940.00;;;;5036689;28;20201;-89
2023/01/07 00:24:12;;;;;;;55.67;7.20;;;13.90;72.20;14.10;96944.00;;;;5035975;28;20339;-88
2023/01/07 00:26:40;;;;;;;12.07;3.80;;;13.90;72.30;14.10;96944.00;;;;5035774;28;20546;-88
2023/01/07 00:29:08;;;;;;;3.43;3.13;;;13.90;72.30;14.00;96936.00;;;;5034946;28;20320;-88
2023/01/07 00:31:37;;;;;;;3.47;2.57;;;13.90;72.20;14.00;96941.00;;;;5035155;28;20288;-88
2023/01/07 00:34:08;;;;;;;10.20;2.67;;;13.80;72.00;14.00;96932.00;;;;5035701;28;20201;-88
2023/01/07 00:36:41;;;;;;;116.47;9.70;;;13.80;72.00;14.00;96929.00;;;;5035611;28;20649;-88
2023/01/07 00:39:13;;;;;;;108.87;8.50;;;13.80;72.20;14.00;96928.00;;;;5034626;28;20239;-88
2023/01/07 00:42:52;;;;;;;32.10;3.97;;;13.80;72.40;14.00;96927.00;;;;5034322;28;20550;-88
2023/01/07 00:44:30;;;;;;;71.20;6.80;;;13.80;72.30;14.00;96926.00;;;;5031442;28;20217;-88
2023/01/07 00:46:58;;;;;;;38.03;4.73;;;13.80;72.30;14.00;96921.00;;;;5033849;28;20251;-88
2023/01/07 00:49:25;;;;;;;94.63;9.13;;;13.80;72.40;14.00;96915.00;;;;5032761;28;20221;-88
2023/01/07 00:51:54;;;;;;;9.23;3.13;;;13.80;72.60;13.90;96919.00;;;;5031703;28;20292;-88
2023/01/07 00:54:21;;;;;;;54.50;6.00;;;13.80;72.60;13.90;96920.00;;;;5034703;28;20299;-88
2023/01/07 00:56:48;;;;;;;81.77;9.07;;;13.80;72.60;14.00;96921.00;;;;5031764;28;20197;-89
2023/01/07 00:59:15;;;;;;;275.37;20.63;;;13.80;72.70;13.90;96923.00;;;;5031938;28;20236;-89
2023/01/07 01:01:42;;;;;;;4.43;2.90;;;13.80;72.90;14.00;96920.00;;;;5038606;28;20612;-88
2023/01/07 01:04:09;;;;;;;25.37;4.50;;;13.80;72.90;14.00;96922.00;;;;5038322;28;20208;-87
2023/01/07 01:06:37;;;;;;;5.63;2.50;;;13.80;72.80;14.00;96923.00;;;;5038200;28;20200;-88
2023/01/07 01:09:05;;;;;;;2.80;2.47;;;13.70;72.70;13.90;96924.00;;;;5038560;28;20252;-87
2023/01/07 01:11:32;;;;;;;59.60;7.27;;;13.70;72.70;13.90;96922.00;;;;5039052;28;20739;-87
2023/01/07 01:13:59;;;;;;;130.03;12.10;;;13.70;72.70;13.90;96926.00;;;;5036512;28;20209;-88
2023/01/07 01:16:26;;;;;;;45.40;6.30;;;13.70;72.80;13.90;96920.00;;;;5039371;28;20711;-88
2023/01/07 01:18:54;;;;;;;9.17;2.73;;;13.70;72.90;13.90;96923.00;;;;5039911;28;20220;-88
2023/01/07 01:21:21;;;;;;;61.33;5.40;;;13.70;72.70;13.90;96924.00;;;;5037963;28;20193;-87
2023/01/07 01:23:48;;;;;;;10.33;2.63;;;13.70;72.70;13.90;96919.00;;;;5038599;28;20239;-86
2023/01/07 01:26:17;;;;;;;7.47;2.73;;;13.70;72.70;13.90;96924.00;;;;5037496;28;20229;-86
2023/01/07 01:28:45;;;;;;;18.67;3.83;;;13.70;72.60;13.90;96926.00;;;;5038349;28;20289;-85
2023/01/07 01:31:13;;;;;;;77.53;7.27;;;13.70;72.60;13.90;96921.00;;;;5039462;28;20330;-85
2023/01/07 01:33:40;;;;;;;26.03;4.63;;;13.70;72.70;13.90;96916.00;;;;5039108;28;20205;-86
2023/01/07 01:36:11;;;;;;;78.00;7.43;;;13.70;72.80;13.90;96927.00;;;;5039140;28;20398;-88
2023/01/07 01:38:39;;;;;;;9.40;3.00;;;13.70;72.90;13.90;96915.00;;;;5039111;28;20240;-85
2023/01/07 01:41:07;;;;;;;33.80;4.30;;;13.70;73.00;13.90;96921.00;;;;5038739;28;20258;-85
2023/01/07 01:43:38;;;;;;;5.93;2.40;;;13.70;72.90;13.90;96918.00;;;;5038529;28;20205;-85
2023/01/07 01:46:13;;;;;;;15.57;3.17;;;13.70;72.90;13.90;96923.00;;;;5038505;28;20228;-85
2023/01/07 01:48:48;;;;;;;6.13;2.60;;;13.70;72.90;13.90;96917.00;;;;5037734;28;20571;-85
2023/01/07 01:51:23;;;;;;;7.93;2.73;;;13.70;72.80;13.90;96906.00;;;;5037661;28;20291;-85
2023/01/07 01:53:52;;;;;;;25.67;3.97;;;13.70;72.90;13.90;96906.00;;;;5036965;28;20189;-87
2023/01/07 01:56:26;;;;;;;33.67;4.63;;;13.70;72.90;13.90;96902.00;;;;5037972;28;20228;-85
2023/01/07 01:59:02;;;;;;;7.93;2.57;;;13.70;73.00;13.90;96905.00;;;;5039471;28;20223;-85
2023/01/07 02:01:33;;;;;;;3.80;2.57;;;13.70;72.90;13.80;96910.00;;;;5039159;28;20223;-85
2023/01/07 02:04:04;;;;;;;8.43;2.70;;;13.70;72.90;13.80;96902.00;;;;5038759;28;20209;-85
2023/01/07 02:06:36;;;;;;;2.53;2.20;;;13.70;72.80;13.80;96907.00;;;;5038623;28;20283;-85
2023/01/07 02:09:03;;;;;;;102.20;9.03;;;13.70;72.60;13.80;96900.00;;;;5038595;28;20314;-85
2023/01/07 02:11:45;;;;;;;50.47;5.50;;;13.60;72.70;13.80;96903.00;;;;5037979;28;20300;-85
2023/01/07 02:14:38;;;;;;;11.70;2.67;;;13.70;73.00;13.80;96899.00;;;;5038524;28;20221;-85
2023/01/07 02:17:19;;;;;;;2.27;2.03;;;13.60;72.90;13.80;96892.00;;;;5039661;28;21248;-85
2023/01/07 02:20:25;;;;;;;2.00;1.67;;;13.70;72.80;13.70;96889.00;;;;5039410;28;20236;-86
2023/01/07 02:23:40;;;;;;;11.60;2.13;;;13.60;72.50;13.70;96890.00;;;;5037578;28;20228;-86
2023/01/07 02:26:55;;;;;;;22.47;4.10;;;13.60;72.60;13.70;96887.00;;;;5038592;28;20443;-85
2023/01/07 02:30:17;;;;;;;13.77;2.90;;;13.60;72.70;13.70;96880.00;;;;5034961;28;20637;-85
2023/01/07 02:33:13;;;;;;;1.90;1.80;;;13.60;72.70;13.70;96879.00;;;;5036823;28;20219;-84
2023/01/07 02:36:09;;;;;;;17.43;2.80;;;13.60;72.60;13.70;96872.00;;;;5037773;28;20236;-88
2023/01/07 02:38:58;;;;;;;42.97;4.43;;;13.60;72.50;13.60;96871.00;;;;5037136;28;20284;-86
2023/01/07 02:41:37;;;;;;;24.53;3.87;;;13.50;72.50;13.60;96868.00;;;;5038724;28;20315;-85
2023/01/07 02:44:09;;;;;;;1.87;1.73;;;13.50;72.60;13.60;96863.00;;;;5038089;28;20326;-85
2023/01/07 02:46:45;;;;;;;2.73;2.03;;;13.50;72.90;13.60;96855.00;;;;5037137;28;20239;-86
2023/01/07 02:49:17;;;;;;;2.40;2.17;;;13.50;73.70;13.60;96858.00;;;;5037236;28;20592;-85
2023/01/07 02:51:46;;;;;;;234.43;17.13;;;13.50;72.80;13.60;96858.00;;;;5038993;28;20208;-86
2023/01/07 02:54:19;;;;;;;6.07;2.63;;;13.50;73.00;13.60;96857.00;;;;5037308;28;20225;-85
2023/01/07 02:57:21;;;;;;;2.27;2.13;;;13.50;73.10;13.60;96847.00;;;;5037485;28;20225;-86
2023/01/07 03:00:13;;;;;;;3.47;1.70;;;13.50;72.80;13.60;96856.00;;;;5035354;28;20287;-85
2023/01/07 03:03:12;;;;;;;2.97;1.60;;;13.50;72.60;13.60;96854.00;;;;5037400;28;20306;-85
2023/01/07 03:05:58;;;;;;;89.67;7.47;;;13.50;73.30;13.60;96850.00;;;;5040684;28;20376;-86
2023/01/07 03:08:51;;;;;;;1.93;1.83;;;13.50;72.80;13.60;96845.00;;;;5037947;28;20193;-85
2023/01/07 03:11:33;;;;;;;101.87;8.47;;;13.50;72.70;13.60;96847.00;;;;5036736;28;20255;-86
2023/01/07 03:14:07;;;;;;;5.40;1.90;;;13.50;72.90;13.60;96844.00;;;;5036875;28;20327;-85
2023/01/07 03:16:39;;;;;;;58.60;5.57;;;13.40;72.90;13.60;96837.00;;;;5039005;28;20283;-85
2023/01/07 03:19:12;;;;;;;99.47;8.03;;;13.40;72.90;13.60;96839.00;;;;5038128;28;20239;-86
2023/01/07 03:21:40;;;;;;;8.10;1.73;;;13.50;73.20;13.60;96835.00;;;;5036209;28;20205;-85
2023/01/07 03:24:09;;;;;;;96.30;8.87;;;13.40;73.20;13.60;96831.00;;;;5035202;28;20580;-87
2023/01/07 03:26:42;;;;;;;44.70;4.53;;;13.40;73.20;13.60;96837.00;;;;5034017;28;20197;-86
2023/01/07 03:29:13;;;;;;;55.43;4.57;;;13.40;73.20;13.60;96840.00;;;;5036685;28;20308;-85
2023/01/07 03:31:53;;;;;;;9.97;2.60;;;13.40;73.30;13.60;96827.00;;;;5036944;28;20679;-86
2023/01/07 03:34:25;;;;;;;101.33;8.70;;;13.40;73.30;13.60;96835.00;;;;5035621;28;20302;-87
2023/01/07 03:37:00;;;;;;;73.83;6.30;;;13.40;73.40;13.60;96829.00;;;;5036184;28;20581;-86
2023/01/07 03:39:32;;;;;;;1.67;1.57;;;13.40;73.50;13.50;96829.00;;;;5034955;28;20305;-85
2023/01/07 03:44:44;;;;;;;1.90;1.80;;;13.40;73.40;13.50;96816.00;;;;5034580;28;20236;-88
2023/01/07 03:47:12;;;;;;;6.57;2.17;;;13.40;73.20;13.50;96821.00;;;;5036587;28;20201;-88
2023/01/07 03:49:39;;;;;;;148.23;12.33;;;13.40;73.20;13.50;96814.00;;;;5035806;28;20658;-88
2023/01/07 03:52:08;;;;;;;34.43;4.43;;;13.40;73.20;13.50;96807.00;;;;5035236;28;20211;-88
2023/01/07 03:54:35;;;;;;;2.63;1.83;;;13.40;73.40;13.50;96801.00;;;;5036190;28;20311;-88
2023/01/07 03:57:02;;;;;;;14.13;2.10;;;13.40;73.40;13.50;96805.00;;;;5036157;28;20289;-88
2023/01/07 03:59:29;;;;;;;5.17;2.20;;;13.40;73.40;13.50;96805.00;;;;5035588;28;20277;-88
2023/01/07 04:01:56;;;;;;;27.13;3.53;;;13.30;73.20;13.50;96796.00;;;;5036668;28;20269;-89
2023/01/07 04:04:23;;;;;;;51.23;4.40;;;13.30;73.20;13.50;96798.00;;;;5035963;28;20307;-88
2023/01/07 04:06:50;;;;;;;32.57;4.03;;;13.30;73.30;13.50;96796.00;;;;5037200;28;20209;-88
2023/01/07 04:09:20;;;;;;;5.57;2.20;;;13.30;73.30;13.50;96785.00;;;;5035611;28;21117;-88
2023/01/07 04:11:48;;;;;;;1.93;1.77;;;13.30;73.30;13.50;96780.00;;;;5036024;28;20212;-88
2023/01/07 04:14:15;;;;;;;46.33;5.60;;;13.30;73.20;13.40;96787.00;;;;5037130;28;20233;-88
2023/01/07 04:16:42;;;;;;;13.30;3.07;;;13.30;73.20;13.40;96773.00;;;;5038030;28;20219;-88
2023/01/07 04:19:10;;;;;;;2.03;1.87;;;13.30;73.30;13.40;96773.00;;;;5036831;28;20703;-88
2023/01/07 04:21:37;;;;;;;1.77;1.67;;;13.30;73.20;13.40;96778.00;;;;5034418;28;20215;-88
2023/01/07 04:24:05;;;;;;;60.93;6.40;;;13.30;73.20;13.40;96770.00;;;;5035554;28;20291;-88
2023/01/07 04:26:33;;;;;;;5.63;2.03;;;13.30;73.20;13.40;96773.00;;;;5033486;28;20300;-88
2023/01/07 04:29:00;;;;;;;17.67;3.23;;;13.30;73.30;13.40;96771.00;;;;5033186;28;20228;-87
2023/01/07 04:31:28;;;;;;;78.63;7.33;;;13.30;73.30;13.40;96764.00;;;;5035451;28;20228;-88
2023/01/07 04:33:55;;;;;;;134.67;10.57;;;13.30;73.40;13.40;96761.00;;;;5034163;28;20597;-88
2023/01/07 04:36:22;;;;;;;75.87;7.43;;;13.30;73.40;13.40;96759.00;;;;5034492;28;20287;-88
2023/01/07 04:38:49;;;;;;;63.27;6.33;;;13.30;73.50;13.40;96756.00;;;;5034426;28;20208;-88
2023/01/07 04:41:16;;;;;;;8.07;2.50;;;13.20;73.60;13.40;96758.00;;;;5034582;28;20288;-89
2023/01/07 04:43:45;;;;;;;8.70;2.23;;;13.20;73.60;13.40;96761.00;;;;5033622;28;20320;-88
2023/01/07 04:46:12;;;;;;;3.00;1.97;;;13.30;73.50;13.40;96757.00;;;;5035857;28;20304;-88
2023/01/07 04:48:39;;;;;;;23.67;3.27;;;13.20;73.40;13.40;96747.00;;;;5034452;28;20228;-88
2023/01/07 04:51:06;;;;;;;2.33;2.13;;;13.20;73.40;13.40;96740.00;;;;5035173;28;20217;-88
2023/01/07 04:53:34;;;;;;;116.27;8.47;;;13.20;73.40;13.40;96733.00;;;;5032339;28;20584;-88
2023/01/07 04:56:01;;;;;;;94.00;7.80;;;13.20;73.40;13.40;96730.00;;;;5029868;28;20603;-88
2023/01/07 04:58:28;;;;;;;4.67;2.00;;;13.20;73.50;13.40;96732.00;;;;5030444;28;20390;-88
2023/01/07 05:00:58;;;;;;;44.87;5.20;;;13.20;73.50;13.40;96723.00;;;;5035623;28;20289;-88
2023/01/07 05:03:25;;;;;;;2.50;2.00;;;13.20;73.50;13.40;96723.00;;;;5031556;28;20197;-88
2023/01/07 05:05:53;;;;;;;3.13;2.10;;;13.20;73.50;13.30;96724.00;;;;5034455;28;20308;-89
2023/01/07 05:08:20;;;;;;;18.70;3.07;;;13.20;73.40;13.30;96721.00;;;;5036000;28;20215;-89
2023/01/07 05:10:49;;;;;;;1.80;1.70;;;13.20;73.40;13.30;96716.00;;;;5036254;28;20845;-87
2023/01/07 05:13:18;;;;;;;4.87;2.97;;;13.20;73.30;13.30;96715.00;;;;5032420;28;20201;-88
2023/01/07 05:15:46;;;;;;;47.00;5.37;;;13.20;73.40;13.30;96719.00;;;;5034040;28;21205;-88
2023/01/07 05:18:14;;;;;;;22.40;3.13;;;13.20;73.50;13.30;96711.00;;;;5034772;28;20292;-88
2023/01/07 05:20:42;;;;;;;2.60;1.90;;;13.20;73.60;13.30;96712.00;;;;5033773;28;20211;-89
2023/01/07 05:23:09;;;;;;;12.43;2.50;;;13.10;73.50;13.30;96703.00;;;;5034029;28;20289;-88
2023/01/07 05:25:36;;;;;;;56.33;5.90;;;13.10;73.50;13.30;96706.00;;;;5034419;28;20295;-88
2023/01/07 05:28:03;;;;;;;3.63;2.10;;;13.10;73.50;13.30;96704.00;;;;5034294;28;20236;-88
2023/01/07 05:30:31;;;;;;;22.10;3.30;;;13.20;73.70;13.30;96696.00;;;;5035196;28;20464;-88
2023/01/07 05:32:58;;;;;;;7.47;2.10;;;13.10;73.50;13.20;96699.00;;;;5035394;28;20200;-88
2023/01/07 05:35:26;;;;;;;2.63;1.90;;;13.10;73.50;13.20;96689.00;;;;5035107;28;20220;-88
2023/01/07 05:37:53;;;;;;;10.77;2.60;;;13.10;73.50;13.20;96693.00;;;;5035214;28;20205;-88
2023/01/07 05:40:20;;;;;;;55.80;4.90;;;13.10;73.50;13.20;96686.00;;;;5036268;28;20647;-88
2023/01/07 05:42:48;;;;;;;12.60;2.20;;;13.10;73.50;13.20;96686.00;;;;5035861;28;20200;-87
2023/01/07 05:45:15;;;;;;;39.30;4.60;;;13.10;73.50;13.20;96691.00;;;;5035158;28;20254;-88
2023/01/07 05:47:43;;;;;;;21.77;2.90;;;13.10;73.50;13.20;96680.00;;;;5036917;28;20209;-89
2023/01/07 05:50:10;;;;;;;60.30;5.57;;;13.10;73.50;13.20;96678.00;;;;5039628;28;20228;-87
2023/01/07 05:52:39;;;;;;;55.30;4.93;;;13.00;73.50;13.10;96671.00;;;;5037525;28;20198;-87
2023/01/07 05:55:07;;;;;;;5.47;2.07;;;13.00;73.60;13.10;96679.00;;;;5038770;28;20221;-88
2023/01/07 05:57:34;;;;;;;4.27;1.50;;;13.00;73.60;13.10;96671.00;;;;5039328;28;20280;-88
2023/01/07 06:00:02;;;;;;;66.37;6.00;;;13.00;73.50;13.10;96674.00;;;;5038910;28;20223;-85
2023/01/07 06:02:30;;;;;;;3.40;1.43;;;13.00;73.60;13.10;96660.00;;;;5038753;28;20207;-85
2023/01/07 06:04:57;;;;;;;47.33;4.13;;;13.00;73.50;13.10;96670.00;;;;5037910;28;20599;-86
2023/01/07 06:07:24;;;;;;;46.83;4.30;;;13.00;73.40;13.10;96665.00;;;;5038714;28;20251;-86
2023/01/07 06:09:52;;;;;;;3.20;1.43;;;13.00;73.40;13.00;96668.00;;;;5038882;28;20297;-86
2023/01/07 06:12:19;;;;;;;2.17;1.40;;;12.90;73.40;13.00;96669.00;;;;5038303;28;21170;-85
2023/01/07 06:14:46;;;;;;;59.03;6.07;;;12.90;73.40;13.00;96668.00;;;;5036593;28;20221;-85
2023/01/07 06:17:14;;;;;;;10.03;1.90;;;12.90;73.40;13.00;96666.00;;;;5039002;28;20197;-85
2023/01/07 06:19:41;;;;;;;21.33;2.87;;;12.90;73.50;13.00;96659.00;;;;5040031;28;20228;-85
2023/01/07 06:22:08;;;;;;;1.60;1.50;;;12.90;73.50;13.00;96655.00;;;;5038184;28;20209;-85
2023/01/07 06:24:35;;;;;;;4.73;1.80;;;12.90;73.50;13.00;96650.00;;;;5036130;28;20259;-86
2023/01/07 06:27:04;;;;;;;6.37;1.53;;;12.90;73.50;13.00;96660.00;;;;5037765;28;20200;-85
2023/01/07 06:29:31;;;;;;;8.37;2.23;;;12.90;73.40;13.00;96660.00;;;;5038485;28;20223;-85
2023/01/07 06:31:58;;;;;;;34.10;3.47;;;12.80;73.40;12.90;96647.00;;;;5036733;28;20229;-85
2023/01/07 06:34:25;;;;;;;52.27;4.67;;;12.80;73.30;12.90;96653.00;;;;5036606;28;20231;-85
2023/01/07 06:36:53;;;;;;;1.73;1.20;;;12.80;73.40;12.90;96655.00;;;;5038104;28;20232;-85
2023/01/07 06:39:20;;;;;;;25.93;2.73;;;12.80;73.40;12.90;96653.00;;;;5038207;28;20316;-85
2023/01/07 06:41:47;;;;;;;1.50;1.40;;;12.80;73.20;12.80;96655.00;;;;5038225;28;20280;-84
2023/01/07 06:44:15;;;;;;;19.07;2.90;;;12.80;73.30;12.80;96647.00;;;;5035307;28;20793;-85
2023/01/07 06:46:42;;;;;;;10.43;2.20;;;12.70;73.10;12.80;96642.00;;;;5037087;28;20211;-86
2023/01/07 06:49:10;;;;;;;75.70;6.33;;;12.70;73.20;12.70;96643.00;;;;5037691;28;20301;-86
2023/01/07 06:51:37;;;;;;;1.57;1.30;;;12.70;73.20;12.70;96648.00;;;;5035752;28;20807;-86
2023/01/07 06:54:04;;;;;;;56.10;5.80;;;12.70;73.20;12.70;96643.00;;;;5038681;28;20197;-85
2023/01/07 06:56:31;;;;;;;11.47;2.37;;;12.60;73.10;12.60;96643.00;;;;5035897;28;20198;-85
2023/01/07 06:58:59;;;;;;;3.27;2.90;;;12.50;73.10;12.60;96639.00;;;;5036480;28;20331;-86
2023/01/07 07:01:27;;;;;;;5.60;3.03;;;12.60;73.10;12.60;96633.00;;;;5034599;28;20228;-85
2023/01/07 07:03:54;;;;;;;6.97;2.80;;;12.50;72.90;12.60;96637.00;;;;5031986;28;20196;-88
2023/01/07 07:06:21;;;;;;;50.00;5.90;;;12.50;72.80;12.50;96636.00;;;;5033550;28;20283;-86
2023/01/07 07:08:48;;;;;;;30.37;3.27;;;12.50;72.90;12.50;96636.00;;;;5034623;28;20287;-86
2023/01/07 07:11:15;;;;;;;10.03;2.47;;;12.50;73.70;12.50;96637.00;;;;5037732;28;20307;-86
2023/01/07 07:13:43;;;;;;;4.40;1.80;;;12.40;72.90;12.40;96636.00;;;;5034791;28;20200;-86
2023/01/07 07:16:10;;;;;;;3.97;1.80;;;12.40;72.90;12.40;96633.00;;;;5033447;28;20917;-85
2023/01/07 07:18:38;;;;;;;47.93;5.00;;;12.40;72.90;12.30;96630.00;;;;5037517;28;20288;-86
2023/01/07 07:21:06;;;;;;;4.30;1.73;;;12.30;72.90;12.30;96643.00;;;;5035760;28;20305;-85
2023/01/07 07:23:33;;;;;;;5.73;1.70;;;12.30;72.90;12.30;96639.00;;;;5035716;28;20746;-86
2023/01/07 07:26:00;;;;;;;36.77;3.47;;;12.30;72.80;12.20;96640.00;;;;5037171;28;20244;-86
2023/01/07 07:28:27;;;;;;;23.53;2.83;;;12.20;73.40;12.20;96639.00;;;;5037465;28;20201;-86
2023/01/07 07:30:54;;;;;;;2.90;1.70;;;12.20;72.90;12.10;96635.00;;;;5035509;28;20257;-86
2023/01/07 07:33:21;;;;;;;4.57;1.60;;;12.10;72.80;12.10;96637.00;;;;5036589;28;20204;-87
2023/01/07 07:35:50;;;;;;;12.27;2.50;;;12.10;72.70;12.00;96632.00;;;;5037652;28;20215;-86
2023/01/07 07:38:17;;;;;;;10.83;2.00;;;12.10;72.80;12.00;96630.00;;;;5036669;28;20201;-85
2023/01/07 07:40:45;;;;;;;38.07;4.20;;;12.00;72.70;11.90;96629.00;;;;5036440;28;20201;-85
2023/01/07 07:43:12;;;;;;;31.53;3.37;;;12.00;72.60;11.90;96622.00;;;;5036263;28;20415;-85
2023/01/07 07:45:39;;;;;;;52.60;5.03;;;11.90;72.80;11.90;96615.00;;;;5035698;28;20213;-85
2023/01/07 07:48:07;;;;;;;8.03;2.23;;;11.90;72.80;11.80;96622.00;;;;5035286;28;20228;-89
2023/01/07 07:50:34;;;;;;;25.97;3.23;;;11.90;72.90;11.80;96620.00;;;;5039392;28;20197;-89
2023/01/07 07:53:03;;;;;;;55.73;3.90;;;11.80;73.00;11.80;96614.00;;;;5043526;28;20268;-90
2023/01/07 07:55:31;;;;;;;35.47;3.87;;;11.80;72.90;11.80;96610.00;;;;5050697;28;20230;-90
2023/01/07 07:57:58;;;;;;;14.27;2.10;;;11.80;73.00;11.80;96615.00;;;;5039385;28;20204;-90
2023/01/07 08:00:28;;;;;;;3.57;1.80;;;11.70;72.90;11.80;96603.00;;;;5040266;28;20227;-90
2023/01/07 08:02:58;;;;;;;2.43;1.50;;;11.70;72.90;11.70;96607.00;;;;5040693;28;20840;-89
2023/01/07 08:05:25;;;;;;;8.00;2.10;;;11.70;72.90;11.70;96602.00;;;;5037267;28;20217;-90
2023/01/07 08:07:54;;;;;;;2.30;1.50;;;11.60;72.90;11.70;96598.00;;;;5043336;28;20270;-89
2023/01/07 08:10:23;;;;;;;28.90;3.03;;;11.60;72.90;11.60;96598.00;;;;5039297;28;20217;-90
2023/01/07 08:12:50;;;;;;;13.60;2.83;;;11.60;72.90;11.60;96592.00;;;;5037174;28;20271;-89
2023/01/07 08:15:18;;;;;;;13.20;2.10;;;11.60;73.00;11.60;96585.00;;;;5039583;28;20255;-91
2023/01/07 08:17:45;;;;;;;2.27;1.77;;;11.50;73.00;11.60;96588.00;;;;5036146;28;20660;-90
2023/01/07 08:20:13;;;;;;;12.20;2.27;;;11.50;73.10;11.60;96583.00;;;;5041285;28;20192;-89
2023/01/07 08:22:40;;;;;;;59.37;5.80;;;11.50;73.20;11.60;96585.00;;;;5037733;28;20233;-88
2023/01/07 08:25:08;;;;;;;6.77;1.90;;;11.50;73.40;11.60;96574.00;;;;5042433;28;20684;-90
2023/01/07 08:27:37;;;;;;;4.70;1.60;;;11.50;73.60;11.60;96572.00;;;;5039027;28;20296;-89
2023/01/07 08:30:05;;;;;;;15.53;1.97;;;11.50;73.70;11.50;96575.00;;;;5041160;28;20658;-89
2023/01/07 08:32:32;;;;;;;16.00;2.90;;;11.50;73.80;11.60;96572.00;;;;5037902;28;20225;-90
2023/01/07 08:34:59;;;;;;;22.87;4.27;;;11.50;73.90;11.60;96573.00;;;;5041523;28;20713;-90
2023/01/07 08:37:29;;;;;;;2.33;2.00;;;11.50;74.00;11.60;96567.00;;;;5041289;28;20284;-90
2023/01/07 08:39:56;;;;;;;6.87;2.10;;;11.50;74.00;11.60;96564.00;;;;5038918;28;20543;-90
2023/01/07 08:42:23;;;;;;;19.57;3.40;;;11.50;74.00;11.70;96565.00;;;;5041490;28;20196;-88
2023/01/07 08:44:52;;;;;;;130.33;9.83;;;11.60;74.20;11.70;96560.00;;;;5040839;28;20244;-90
2023/01/07 08:47:19;;;;;;;6.07;1.87;;;11.50;74.20;11.70;96560.00;;;;5039046;28;20236;-89
2023/01/07 08:49:46;;;;;;;8.57;2.10;;;11.60;74.20;11.80;96554.00;;;;5038354;28;20292;-88
2023/01/07 08:52:14;;;;;;;7.90;1.87;;;11.60;74.10;11.80;96556.00;;;;5048393;28;20256;-90
2023/01/07 08:54:41;;;;;;;24.13;3.10;;;11.60;73.90;11.80;96556.00;;;;5046303;28;20320;-89
2023/01/07 08:57:08;;;;;;;1.70;1.60;;;11.60;73.90;11.80;96551.00;;;;5036983;28;20289;-88
2023/01/07 08:59:37;;;;;;;3.00;1.60;;;11.60;73.80;11.90;96555.00;;;;5035507;28;20577;-89
2023/01/07 09:02:06;;;;;;;1.50;1.40;;;11.70;73.70;11.90;96547.00;;;;5032539;28;20193;-89
2023/01/07 09:04:33;;;;;;;1.83;1.73;;;11.70;73.70;11.90;96550.00;;;;5039907;28;20324;-89
2023/01/07 09:07:00;;;;;;;1.73;1.63;;;11.70;73.40;11.90;96546.00;;;;5044268;28;20606;-88
2023/01/07 09:09:28;;;;;;;1.37;1.30;;;11.70;73.00;11.90;96548.00;;;;5037079;28;20204;-89
2023/01/07 09:11:55;;;;;;;1.83;1.33;;;11.70;72.70;11.90;96541.00;;;;5038605;28;20274;-89
2023/01/07 09:14:22;;;;;;;16.07;2.77;;;11.70;72.70;12.00;96545.00;;;;5035403;28;21136;-88
2023/01/07 09:16:49;;;;;;;27.90;3.70;;;11.80;72.90;12.00;96541.00;;;;5035170;28;20213;-89
2023/01/07 09:19:21;;;;;;;2.57;1.70;;;11.80;73.20;12.00;96535.00;;;;5041003;28;20209;-92
2023/01/07 09:21:50;;;;;;;1.80;1.70;;;11.00;72.70;12.10;96533.00;;;;5042943;28;20205;-90
2023/01/07 09:24:17;;;;;;;2.40;1.70;;;11.80;73.10;12.10;96530.00;;;;5043896;28;20591;-90
2023/01/07 09:26:45;;;;;;;2.07;1.93;;;13.40;74.00;12.10;96531.00;;;;5039936;28;20285;-90
2023/01/07 09:29:12;;;;;;;1.70;1.60;;;11.90;73.10;12.20;96529.00;;;;5039737;28;20287;-89
2023/01/07 09:31:39;;;;;;;26.03;3.63;;;11.90;73.10;12.20;96529.00;;;;5039879;28;20220;-89
2023/01/07 09:34:06;;;;;;;2.33;1.87;;;12.00;73.20;12.20;96536.00;;;;5042777;28;20209;-89
2023/01/07 09:36:35;;;;;;;1.90;1.80;;;12.00;73.30;12.30;96535.00;;;;5040873;28;20236;-90
2023/01/07 09:39:02;;;;;;;2.00;1.90;;;12.00;73.20;12.30;96532.00;;;;5038248;28;20288;-90
2023/01/07 09:41:44;;;;;;;2.00;1.73;;;12.10;73.30;12.40;96527.00;;;;5042551;28;20636;-88
2023/01/07 09:44:24;;;;;;;1.80;1.70;;;12.10;73.40;12.50;96526.00;;;;5040526;28;20224;-89
2023/01/07 09:46:55;;;;;;;35.63;3.83;;;12.20;73.70;12.70;96528.00;;;;5039764;28;20216;-89
2023/01/07 09:49:31;;;;;;;8.37;2.30;;;12.30;74.10;12.80;96528.00;;;;5038542;28;20276;-89
2023/01/07 09:52:08;;;;;;;2.13;1.73;;;12.50;74.30;13.00;96524.00;;;;5039443;28;20224;-89
2023/01/07 09:54:39;;;;;;;1.60;1.47;;;12.60;74.30;13.20;96533.00;;;;5037701;28;20295;-89
2023/01/07 09:57:11;;;;;;;33.13;3.90;;;12.80;74.50;13.40;96518.00;;;;5038671;28;20619;-90
2023/01/07 09:59:38;;;;;;;2.20;2.00;;;12.90;74.70;13.50;96520.00;;;;5038998;28;21151;-89
2023/01/07 10:02:26;;;;;;;1.90;1.70;;;13.10;74.90;13.80;96519.00;;;;5038739;28;20316;-90
2023/01/07 10:05:19;;;;;;;3.57;2.03;;;13.30;74.60;13.90;96513.00;;;;5040169;28;20317;-89
2023/01/07 10:07:58;;;;;;;1.83;1.63;;;13.50;74.70;14.20;96511.00;;;;5039632;28;20229;-90
2023/01/07 10:10:42;;;;;;;2.37;1.70;;;13.70;74.40;14.40;96509.00;;;;5039285;28;20219;-90
2023/01/07 10:13:34;;;;;;;6.03;1.87;;;14.00;74.40;14.60;96501.00;;;;5036948;28;20280;-89
2023/01/07 10:16:16;;;;;;;27.67;2.97;;;14.20;74.20;14.80;96508.00;;;;5040762;28;20244;-90
2023/01/07 10:18:56;;;;;;;4.67;2.10;;;14.40;74.30;14.90;96504.00;;;;5041705;28;20205;-90
2023/01/07 10:21:33;;;;;;;3.87;1.60;;;14.60;73.70;15.10;96492.00;;;;5040020;28;20228;-91
2023/01/07 10:24:09;;;;;;;2.17;2.07;;;14.80;73.80;15.30;96490.00;;;;5040983;28;20617;-89
2023/01/07 10:26:40;;;;;;;9.27;2.10;;;15.00;73.00;15.40;96495.00;;;;5041689;28;20204;-91
2023/01/07 10:29:16;;;;;;;2.20;1.93;;;15.10;72.70;15.60;96490.00;;;;5036467;28;20630;-89
2023/01/07 10:31:46;;;;;;;14.50;2.57;;;15.30;72.00;15.70;96487.00;;;;5041238;28;20212;-90
2023/01/07 10:34:22;;;;;;;10.83;2.30;;;15.50;71.90;15.80;96484.00;;;;5038650;28;20197;-89
2023/01/07 10:37:01;;;;;;;25.63;2.87;;;15.60;71.70;16.00;96473.00;;;;5040562;28;20271;-90
2023/01/07 10:39:46;;;;;;;25.40;3.17;;;15.80;71.20;16.00;96471.00;;;;5036618;28;20287;-90
2023/01/07 10:42:22;;;;;;;4.00;1.87;;;15.90;70.70;16.10;96468.00;;;;5039192;28;20200;-90
2023/01/07 10:45:23;;;;;;;5.40;2.13;;;16.00;69.80;16.10;96463.00;;;;5040656;28;20285;-90
2023/01/07 10:48:29;;;;;;;1.50;1.40;;;16.10;68.50;16.10;96460.00;;;;5040937;28;20212;-90
2023/01/07 10:51:37;;;;;;;1.73;1.40;;;16.10;67.40;16.00;96449.00;;;;5039015;28;20204;-89
2023/01/07 10:54:22;;;;;;;4.73;1.53;;;16.10;67.20;15.90;96450.00;;;;5048084;28;20246;-89
2023/01/07 10:56:57;;;;;;;3.00;1.53;;;16.00;66.80;15.80;96443.00;;;;5036311;28;20250;-90
2023/01/07 10:59:25;;;;;;;10.50;2.30;;;15.90;66.80;15.70;96441.00;;;;5044251;28;20767;-89
2023/01/07 11:01:56;;;;;;;11.73;2.70;;;15.80;66.90;15.70;96444.00;;;;5038885;28;20667;-90
2023/01/07 11:04:23;;;;;;;6.43;1.50;;;15.70;66.90;15.50;96435.00;;;;5036229;28;20273;-89
2023/01/07 11:06:59;;;;;;;1.00;1.00;;;15.60;66.50;15.50;96431.00;;;;5035411;28;20281;-89
2023/01/07 11:09:32;;;;;;;11.73;2.07;;;15.50;66.00;15.40;96435.00;;;;5038528;28;20255;-89
2023/01/07 11:12:09;;;;;;;1.07;1.00;;;15.40;66.10;15.30;96428.00;;;;5040381;28;20235;-90